• Join FlightAware (Why Join?)
  • Login
  • US Flag 
09:18PM EDT


 

Airport Tracker/Info


-or-


 

Live Flight TrackerFlight Track Log ✈ ASQ5740 ✈ 21-Nov-2013 ✈ KGSP - KIAD

Flight Track Log - Related Links

Times and Time Zones

All times are in EST time to prevent confusion due to time zone crossing. See the ASQ5740 flight status page for this flight to view local times or setup timezone preferences in your user account.

Time Position Orientation Groundspeed Altitude Reporting Facility
EST Latitude Longitude Course Direction KTS MPH feet Rate Location/Type
03:03PM 34.9711 -82.1275 71° East 231 266 4,700  Level Atlanta Center
03:04PM 35.1418 -81.9496 North  Level Estimated
03:04PM 34.9989 -82.0408 69° East 243 280 7,100  Level Atlanta Center
03:05PM 35.2518 -81.9438 North  Level FlightAware Approximate
03:05PM 35.0306 -81.9461 68° East 271 312 9,500  Level Atlanta Center
03:06PM 35.3327 -81.8522 80° East  Level Estimated
03:06PM 35.1181 -81.9311 North 272 313 10,500  Level Atlanta Center
03:07PM 35.4135 -81.7604 71° East  Level Estimated
03:07PM 35.2183 -81.9364 358° North 303 349 12,700  Level Atlanta Center
03:08PM 35.3103 -81.9392 359° North 316 364 15,300 2,040 Climbing Atlanta Center
03:09PM 35.4061 -81.9342 North 327 376 16,800 1,260 Climbing Atlanta Center
03:10PM 35.4628 -81.8331 55° Northeast 318 366 17,900 1,020 Climbing Atlanta Center
03:11PM 35.5022 -81.7097 69° East 315 362 18,900 900 Climbing Atlanta Center
03:12PM 35.5417 -81.5961 67° East 364 419 19,800 960 Climbing Atlanta Center
03:13PM 35.5847 -81.4569 69° East 380 437 20,900 1,140 Climbing Atlanta Center
03:14PM 35.6256 -81.3256 69° East 401 461 22,100 1,140 Climbing Atlanta Center
03:15PM 35.6642 -81.1836 71° East 419 482 23,200 1,020 Climbing Atlanta Center
03:16PM 35.7031 -81.0647 68° East 414 476 24,200 900 Climbing Atlanta Center
03:17PM 35.7517 -80.9222 67° East 414 476 25,100 840 Climbing Atlanta Center
03:18PM 35.7961 -80.7847 68° East 415 478 25,900 780 Climbing Atlanta Center
03:19PM 35.8361 -80.6475 70° East 420 483 26,700 720 Climbing Atlanta Center
03:21PM 35.9158 -80.3931 69° East 420 483 28,100 720 Climbing Washington Center
03:22PM 35.9608 -80.2547 68° East 425 489 28,900 420 Climbing Washington Center
03:23PM 36.0039 -80.1136 69° East 425 489 29,000  Climbing Washington Center
03:24PM 36.0511 -79.9672 68° East 439 505 29,000  Level Washington Center
03:25PM 36.1244 -79.8375 55° Northeast 444 511 29,000 -180 Level Washington Center
03:26PM 36.2000 -79.7053 55° Northeast 465 535 28,700 -540 Descending Washington Center
03:27PM 36.2822 -79.5600 55° Northeast 476 548 28,000 -360 Descending Washington Center
03:28PM 36.3442 -79.4525 54° Northeast 476 548 28,000  Level Washington Center
03:29PM 36.4328 -79.2914 56° Northeast 476 548 28,000  Level Washington Center
03:30PM 36.5056 -79.1581 56° Northeast 476 548 28,000 -120 Level Washington Center
03:31PM 36.5736 -79.0447 53° Northeast 471 542 27,800 -960 Descending Washington Center
03:32PM 36.6483 -78.9133 55° Northeast 460 529 26,200 -1,440 Descending Washington Center
03:33PM 36.7189 -78.7739 58° Northeast 465 535 25,000 -600 Descending Washington Center
03:34PM 36.8117 -78.6608 44° Northeast 465 535 25,000  Level Washington Center
03:35PM 36.9189 -78.5381 42° Northeast 460 529 25,000 -300 Level Washington Center
03:36PM 37.0156 -78.4272 42° Northeast 465 535 24,500 -540 Descending Washington Center
03:37PM 37.1011 -78.3289 42° Northeast 449 517 24,000 -1,020 Descending Washington Center
03:38PM 37.1806 -78.2378 42° Northeast 407 468 22,500 -1,020 Descending Washington Center
03:39PM 37.2489 -78.1592 42° Northeast 373 429 22,000 -300 Descending Washington Center
03:40PM 37.3175 -78.0753 44° Northeast 350 403 22,000  Level Washington Center
03:41PM 37.3922 -77.9889 43° Northeast 350 403 22,000  Level Washington Center
03:42PM 37.4650 -77.8994 44° Northeast 355 409 22,000 -240 Level Washington Center
03:43PM 37.5456 -77.8183 39° Northeast 355 409 21,600 -600 Descending Washington Center
03:44PM 37.6364 -77.7658 25° Northeast 355 409 20,900 -780 Descending Washington Center
03:45PM 37.7250 -77.7131 25° Northeast 349 402 20,100 -1,320 Descending Washington Center
03:46PM 37.8111 -77.6658 23° Northeast 344 396 18,400 -1,560 Descending Washington Center
03:47PM 37.8933 -77.6153 26° Northeast 331 381 17,100 -960 Descending Washington Center
03:48PM 37.9778 -77.5675 24° Northeast 325 374 16,500 -1,020 Descending Washington Center
03:49PM 38.0575 -77.5222 24° Northeast 319 367 15,100 -780 Descending Washington Center
03:50PM 38.1328 -77.5161 North 307 353 15,000 -600 Descending Washington Center
03:51PM 38.1522 -77.6064 285° West 214 246 14,000 -540 Descending Washington Center
03:52PM 38.0908 -77.6603 215° Southwest 155 178 14,000 -60 Level Washington Center
03:53PM 38.0075 -77.6500 174° South 223 257 13,900 -720 Descending Washington Center
03:54PM 38.0217 -77.5528 79° East 187 215 12,600 -1,200 Descending Washington Center
03:55PM 38.0850 -77.5097 28° Northeast 175 201 11,500 -1,260 Descending Washington Center
03:56PM 38.1608 -77.4614 27° Northeast 239 275 10,200 -1,020 Descending Washington Center
03:57PM 38.2344 -77.4156 26° Northeast 269 310 9,500 -900 Descending Washington Center
03:58PM 38.3081 -77.3725 25° Northeast 284 327 8,500 -1,020 Descending Washington Center
03:59PM 38.3856 -77.3558 10° North 284 327 7,500 -1,080 Descending Washington Center
04:00PM 38.4625 -77.3603 357° North 274 315 6,400 -960 Descending Washington Center
04:01PM 38.5375 -77.3647 357° North 274 315 5,600 -720 Descending Washington Center
04:02PM 38.6333 -77.3667 359° North 272 313 5,000 -300 Descending Potomac TRACON
04:03PM 38.7000 -77.3667 360° North 249 287 5,000 -420 Level Potomac TRACON
04:04PM 38.7667 -77.3500 11° North 242 278 4,200 -540 Descending Potomac TRACON
04:05PM 38.8333 -77.3500 360° North 246 283 4,000 -120 Descending Potomac TRACON
04:06PM 38.9000 -77.3500 360° North 247 284 4,000  Level Potomac TRACON
04:07PM 38.9667 -77.3500 360° North 247 284 4,000  Level Potomac TRACON
04:08PM 39.0333 -77.3500 360° North 246 283 4,000 -540 Level Potomac TRACON
04:09PM 39.1000 -77.3500 360° North 232 267 3,000 -540 Descending Potomac TRACON
04:10PM 39.1667 -77.3500 360° North 210 242 3,000  Level Potomac TRACON
04:11PM 39.2000 -77.3667 339° North 190 219 3,000 -120 Level Potomac TRACON
04:12PM 39.2000 -77.4167 270° West 170 196 2,800 -300 Descending Potomac TRACON
04:13PM 39.1667 -77.4333 201° Southwest 159 183 2,500 -180 Descending Potomac TRACON
04:14PM 39.1167 -77.4333 180° South 156 180 2,500  Level Potomac TRACON
04:15PM 39.0833 -77.4333 180° South 156 180 2,500 -300 Level Potomac TRACON
04:16PM 39.0333 -77.4333 180° South 152 175 2,000 -660 Descending Potomac TRACON
04:17PM 39.0000 -77.4333 180° South 144 166 1,200 -840 Descending Potomac TRACON